Appleton, Minnesota
Current Conditions -  °F | °C
As of 7:14 AM on Sunday 23 Nov 2014 (Local Time) from KAQP Reporting Station
Overcast Overcast  
Wind Chill: 37°   Ceiling: 8000
Heat Index: 37°   Visibility: 10mi
Dew Point: 34°   Wind: 0mph
Humidity: 87%   Direction: NA
Pressure: 29.43"   Gusts: NA
Location:  45.2°N, 96.02°W
Report Text: KAQP 231314Z AUTO 00000KT 10SM OVC080 03/01 A2943 RMK AO2
Loading
Personal Weather Stations






























Interactive Weather Map New forecast layout! Learn more

10-Day Weather Forecast

Advertisements
Track Severe Weather on mobile